createdAt,value
2019-01-23T00:00:40.979Z,63.35
2019-01-23T00:01:30.940Z,63.29
2019-01-23T00:02:06.610Z,63.06
2019-01-23T00:02:42.087Z,62.73
2019-01-23T00:03:17.804Z,62.95
2019-01-23T00:03:53.255Z,63.10
2019-01-23T00:04:28.680Z,63.39
2019-01-23T00:05:04.393Z,63.22
2019-01-23T00:05:39.821Z,63.32
2019-01-23T00:06:15.336Z,63.56
2019-01-23T00:06:51.067Z,63.54
2019-01-23T00:07:26.506Z,63.14
2019-01-23T00:08:01.979Z,63.35
2019-01-23T00:08:37.411Z,63.15
2019-01-23T00:09:13.102Z,63.32
2019-01-23T00:09:48.811Z,63.47
2019-01-23T00:10:24.642Z,63.47
2019-01-23T00:11:00.644Z,63.57
2019-01-23T00:11:36.631Z,63.69
2019-01-23T00:12:12.092Z,63.52
2019-01-23T00:12:47.525Z,62.95
2019-01-23T00:13:23.010Z,63.00
2019-01-23T00:13:58.428Z,63.22
2019-01-23T00:14:33.854Z,63.46
2019-01-23T00:15:09.974Z,63.52
2019-01-23T00:15:46.318Z,63.68
2019-01-23T00:16:21.745Z,63.91
2019-01-23T00:16:57.486Z,63.95
2019-01-23T00:17:32.920Z,63.97
2019-01-23T00:18:08.699Z,63.72
2019-01-23T00:18:44.158Z,63.64
2019-01-23T00:19:19.582Z,63.71
2019-01-23T00:19:55.010Z,63.74
2019-01-23T00:20:30.715Z,63.45
2019-01-23T00:21:06.712Z,63.39
2019-01-23T00:21:42.445Z,63.48
2019-01-23T00:22:18.130Z,63.31
2019-01-23T00:22:53.807Z,63.23
2019-01-23T00:23:29.670Z,62.67
2019-01-23T00:24:05.300Z,62.44
2019-01-23T00:24:41.019Z,62.83
2019-01-23T00:25:16.796Z,63.20
2019-01-23T00:25:52.223Z,63.07
2019-01-23T00:26:27.915Z,62.67
2019-01-23T00:27:03.360Z,62.43
2019-01-23T00:27:39.090Z,62.65
2019-01-23T00:28:14.558Z,62.81
2019-01-23T00:28:49.996Z,62.93
2019-01-23T00:29:25.441Z,62.95
2019-01-23T00:30:01.204Z,62.94
2019-01-23T00:30:36.629Z,62.90
2019-01-23T00:31:12.062Z,63.01
2019-01-23T00:31:47.482Z,62.73
2019-01-23T00:32:22.909Z,62.44
2019-01-23T00:32:58.633Z,62.28
2019-01-23T00:33:34.107Z,62.54
2019-01-23T00:34:09.560Z,62.63
2019-01-23T00:34:45.006Z,62.62
2019-01-23T00:35:20.730Z,62.71
2019-01-23T00:35:56.182Z,62.89
2019-01-23T00:36:31.899Z,62.98
2019-01-23T00:37:07.655Z,62.93
2019-01-23T00:37:43.083Z,62.85
2019-01-23T00:38:19.814Z,62.94
2019-01-23T00:38:55.532Z,62.84
2019-01-23T00:39:30.975Z,62.84
2019-01-23T00:40:07.534Z,62.99
2019-01-23T00:40:42.984Z,63.04
2019-01-23T00:41:18.471Z,63.15
2019-01-23T00:41:53.905Z,63.10
2019-01-23T00:42:29.352Z,63.04
2019-01-23T00:43:05.117Z,62.76
2019-01-23T00:43:40.853Z,62.74
2019-01-23T00:44:16.280Z,62.91
2019-01-23T00:44:51.746Z,63.09
2019-01-23T00:45:27.189Z,63.20
2019-01-23T00:46:02.629Z,62.91
2019-01-23T00:46:38.139Z,62.61
2019-01-23T00:47:13.920Z,62.57
2019-01-23T00:47:49.770Z,62.63
2019-01-23T00:48:25.779Z,62.77
2019-01-23T00:49:01.230Z,62.74
2019-01-23T00:49:36.675Z,62.75
2019-01-23T00:50:13.305Z,62.67
2019-01-23T00:50:49.054Z,62.96
2019-01-23T00:51:24.501Z,63.16
2019-01-23T00:51:59.961Z,63.28
2019-01-23T00:52:35.394Z,63.25
2019-01-23T00:53:10.850Z,62.98
2019-01-23T00:53:46.329Z,62.76
2019-01-23T00:54:21.774Z,62.59
2019-01-23T00:54:57.216Z,62.42
2019-01-23T00:55:32.641Z,62.15
2019-01-23T00:56:08.687Z,62.46
2019-01-23T00:56:44.669Z,62.61
2019-01-23T00:57:20.113Z,62.66
2019-01-23T00:57:55.547Z,62.51
2019-01-23T00:58:31.343Z,62.42
2019-01-23T00:59:06.907Z,62.42
2019-01-23T00:59:42.589Z,62.57
2019-01-23T01:00:20.989Z,62.83
2019-01-23T01:00:56.407Z,62.83
2019-01-23T01:01:31.878Z,62.66
2019-01-23T01:02:07.867Z,62.82
2019-01-23T01:02:43.587Z,62.67
2019-01-23T01:03:19.337Z,62.68
2019-01-23T01:03:54.822Z,62.86
2019-01-23T01:04:30.248Z,62.86
2019-01-23T01:05:06.458Z,62.74
2019-01-23T01:05:41.897Z,62.87
2019-01-23T01:06:17.323Z,62.57
2019-01-23T01:06:53.297Z,62.55
2019-01-23T01:07:29.307Z,62.48
2019-01-23T01:08:05.150Z,62.18
2019-01-23T01:08:40.613Z,62.10
2019-01-23T01:09:16.054Z,62.02
2019-01-23T01:09:51.761Z,62.07
2019-01-23T01:10:27.753Z,62.15
2019-01-23T01:11:03.444Z,62.13
2019-01-23T01:11:38.866Z,62.37
2019-01-23T01:12:14.728Z,62.08
2019-01-23T01:12:50.165Z,62.14
2019-01-23T01:13:25.619Z,62.23
2019-01-23T01:14:01.109Z,62.13
2019-01-23T01:14:36.647Z,62.11
2019-01-23T01:15:13.544Z,62.16
2019-01-23T01:15:49.181Z,62.38
2019-01-23T01:16:24.630Z,62.32
2019-01-23T01:17:00.067Z,62.46
2019-01-23T01:17:35.513Z,62.74
2019-01-23T01:18:11.214Z,63.11
2019-01-23T01:18:46.963Z,63.03
2019-01-23T01:19:22.398Z,62.97
2019-01-23T01:19:57.829Z,63.10
2019-01-23T01:20:33.510Z,63.08
2019-01-23T01:21:08.996Z,62.96
2019-01-23T01:21:44.426Z,62.78
2019-01-23T01:22:19.872Z,62.43
2019-01-23T01:22:55.429Z,62.81
2019-01-23T01:23:31.152Z,62.78
2019-01-23T01:24:06.899Z,62.93
2019-01-23T01:24:42.324Z,62.99
2019-01-23T01:25:18.386Z,62.93
2019-01-23T01:25:53.851Z,62.79
2019-01-23T01:26:29.640Z,62.75
2019-01-23T01:27:05.550Z,62.78
2019-01-23T01:27:41.268Z,62.79
2019-01-23T01:28:17.004Z,62.99
2019-01-23T01:28:56.139Z,63.04
2019-01-23T01:29:30.069Z,62.90
2019-01-23T01:30:08.662Z,62.72
2019-01-23T01:30:44.161Z,62.50
2019-01-23T01:31:19.889Z,62.71
2019-01-23T01:31:55.421Z,62.71
2019-01-23T01:32:30.863Z,62.84
2019-01-23T01:33:06.339Z,62.80
2019-01-23T01:33:41.823Z,62.95
2019-01-23T01:34:17.508Z,63.09
2019-01-23T01:34:53.218Z,63.29
2019-01-23T01:35:28.668Z,63.19
2019-01-23T01:36:04.124Z,62.60
2019-01-23T01:36:39.922Z,62.61
2019-01-23T01:37:15.377Z,62.74
2019-01-23T01:37:51.062Z,62.84
2019-01-23T01:38:26.489Z,62.51
2019-01-23T01:39:01.947Z,62.56
2019-01-23T01:39:37.416Z,62.67
2019-01-23T01:40:13.967Z,62.46
2019-01-23T01:40:49.650Z,62.09
2019-01-23T01:41:25.094Z,61.99
2019-01-23T01:42:00.798Z,62.20
2019-01-23T01:42:36.250Z,61.94
2019-01-23T01:43:11.961Z,62.08
2019-01-23T01:43:47.430Z,61.99
2019-01-23T01:44:22.872Z,61.96
2019-01-23T01:44:58.304Z,62.07
2019-01-23T01:45:33.749Z,62.18
2019-01-23T01:46:09.282Z,62.23
2019-01-23T01:46:45.131Z,62.49
2019-01-23T01:47:20.525Z,62.16
2019-01-23T01:47:56.270Z,62.23
2019-01-23T01:48:31.695Z,62.36
2019-01-23T01:49:07.512Z,62.30
2019-01-23T01:49:42.957Z,61.99
2019-01-23T01:50:21.860Z,61.98
2019-01-23T01:50:57.577Z,62.00
2019-01-23T01:51:33.269Z,61.95
2019-01-23T01:52:08.709Z,62.02
2019-01-23T01:52:44.131Z,61.99
2019-01-23T01:53:19.561Z,62.08
2019-01-23T01:53:55.578Z,62.15
2019-01-23T01:54:31.267Z,62.26
2019-01-23T01:55:08.082Z,62.25
2019-01-23T01:55:43.834Z,62.04
2019-01-23T01:56:19.266Z,62.30
2019-01-23T01:56:55.253Z,62.44
2019-01-23T01:57:30.687Z,62.48
2019-01-23T01:58:10.016Z,62.51
2019-01-23T01:58:43.876Z,62.62
2019-01-23T01:59:19.916Z,62.91
2019-01-23T01:59:55.729Z,62.86
2019-01-23T02:00:31.447Z,62.79
2019-01-23T02:01:07.197Z,62.59
2019-01-23T02:01:42.921Z,62.74
2019-01-23T02:02:18.344Z,62.78
2019-01-23T02:02:53.778Z,62.84
2019-01-23T02:03:30.349Z,63.00
2019-01-23T02:04:05.945Z,63.07
2019-01-23T02:04:41.631Z,63.12
2019-01-23T02:05:17.843Z,62.96
2019-01-23T02:05:53.262Z,62.71
2019-01-23T02:06:28.711Z,62.42
2019-01-23T02:07:04.342Z,62.50
2019-01-23T02:07:40.033Z,62.36
2019-01-23T02:08:15.774Z,62.39
2019-01-23T02:08:51.278Z,62.54
2019-01-23T02:09:26.758Z,62.72
2019-01-23T02:10:02.445Z,62.84
2019-01-23T02:10:37.911Z,62.65
2019-01-23T02:11:13.360Z,62.60
2019-01-23T02:11:48.885Z,62.66
2019-01-23T02:12:24.331Z,62.73
2019-01-23T02:12:59.762Z,62.81
2019-01-23T02:13:35.195Z,62.58
2019-01-23T02:14:10.670Z,62.42
2019-01-23T02:14:46.123Z,62.01
2019-01-23T02:15:21.603Z,62.09
2019-01-23T02:15:57.623Z,61.94
2019-01-23T02:16:33.330Z,62.10
2019-01-23T02:17:08.879Z,62.31
2019-01-23T02:17:44.496Z,62.26
2019-01-23T02:18:19.939Z,62.02
2019-01-23T02:18:55.364Z,62.12
2019-01-23T02:19:30.848Z,62.21
2019-01-23T02:20:09.209Z,62.39
2019-01-23T02:20:44.666Z,62.50
2019-01-23T02:21:20.436Z,62.47
2019-01-23T02:21:55.874Z,62.35
2019-01-23T02:22:31.585Z,62.45
2019-01-23T02:23:07.026Z,62.41
2019-01-23T02:23:42.525Z,62.43
2019-01-23T02:24:18.325Z,62.39
2019-01-23T02:24:54.069Z,62.43
2019-01-23T02:25:29.501Z,62.46
2019-01-23T02:26:04.938Z,62.45
2019-01-23T02:26:40.392Z,62.31
2019-01-23T02:27:15.915Z,62.09
2019-01-23T02:27:51.608Z,62.00
2019-01-23T02:28:27.053Z,62.11
2019-01-23T02:29:09.320Z,62.00
2019-01-23T02:29:39.955Z,61.56
2019-01-23T02:30:17.027Z,61.50
2019-01-23T02:30:52.717Z,61.67
2019-01-23T02:31:28.467Z,61.91
2019-01-23T02:32:04.149Z,62.11
2019-01-23T02:32:39.594Z,62.16
2019-01-23T02:33:15.036Z,62.10
2019-01-23T02:33:50.501Z,62.11
2019-01-23T02:34:26.191Z,62.05
2019-01-23T02:35:01.726Z,61.73
2019-01-23T02:35:37.184Z,61.77
2019-01-23T02:36:12.716Z,61.84
2019-01-23T02:36:48.412Z,61.63
2019-01-23T02:37:23.841Z,61.76
2019-01-23T02:37:59.270Z,61.92
2019-01-23T02:38:34.708Z,62.03
2019-01-23T02:39:10.421Z,62.05
2019-01-23T02:39:45.897Z,61.87
2019-01-23T02:40:22.656Z,61.80
2019-01-23T02:40:58.705Z,61.86
2019-01-23T02:41:34.138Z,61.88
2019-01-23T02:42:09.837Z,62.09
2019-01-23T02:42:45.261Z,61.73
2019-01-23T02:43:20.688Z,61.20
2019-01-23T02:43:56.118Z,61.33
2019-01-23T02:44:31.549Z,61.58
2019-01-23T02:45:07.272Z,61.74
2019-01-23T02:45:42.727Z,61.54
2019-01-23T02:46:18.710Z,61.11
2019-01-23T02:46:54.410Z,61.19
2019-01-23T02:47:29.862Z,61.35
2019-01-23T02:48:05.941Z,60.98
2019-01-23T02:48:41.645Z,61.19
2019-01-23T02:49:17.343Z,61.45
2019-01-23T02:49:53.140Z,61.69
2019-01-23T02:50:28.610Z,61.70
2019-01-23T02:51:04.067Z,61.80
2019-01-23T02:51:39.551Z,61.77
2019-01-23T02:52:15.224Z,61.72
2019-01-23T02:52:50.636Z,61.62
2019-01-23T02:53:26.074Z,61.55
2019-01-23T02:54:01.519Z,61.56
2019-01-23T02:54:37.210Z,61.63
2019-01-23T02:55:12.703Z,61.58
2019-01-23T02:55:48.141Z,61.46
2019-01-23T02:56:23.854Z,61.46
2019-01-23T02:56:59.622Z,61.62
2019-01-23T02:57:35.064Z,61.55
2019-01-23T02:58:10.893Z,61.39
2019-01-23T02:58:46.353Z,61.48
2019-01-23T02:59:21.780Z,61.61
2019-01-23T02:59:57.244Z,61.74
2019-01-23T03:00:34.025Z,61.82
2019-01-23T03:01:09.634Z,61.82
2019-01-23T03:01:45.127Z,61.37
2019-01-23T03:02:20.536Z,61.44
2019-01-23T03:02:56.240Z,61.57
2019-01-23T03:03:31.994Z,61.65
2019-01-23T03:04:07.479Z,61.82
2019-01-23T03:04:42.984Z,61.87
2019-01-23T03:05:19.556Z,61.86
2019-01-23T03:05:54.967Z,61.80
2019-01-23T03:06:30.447Z,61.65
2019-01-23T03:07:05.928Z,61.59
2019-01-23T03:07:41.502Z,61.51
2019-01-23T03:08:16.958Z,61.43
2019-01-23T03:08:52.486Z,61.53
2019-01-23T03:09:27.928Z,61.12
2019-01-23T03:10:03.445Z,60.80
2019-01-23T03:10:38.988Z,61.06
2019-01-23T03:11:14.442Z,61.31
2019-01-23T03:11:50.447Z,61.08
2019-01-23T03:12:25.875Z,61.15
2019-01-23T03:13:01.637Z,61.08
2019-01-23T03:13:37.160Z,61.19
2019-01-23T03:14:12.897Z,61.42
2019-01-23T03:14:48.347Z,61.40
2019-01-23T03:15:24.076Z,61.54
2019-01-23T03:15:59.854Z,61.66
2019-01-23T03:16:35.550Z,61.75
2019-01-23T03:17:11.081Z,61.60
2019-01-23T03:17:46.591Z,61.48
2019-01-23T03:18:22.157Z,61.20
2019-01-23T03:18:57.594Z,61.28
2019-01-23T03:19:33.381Z,61.52
2019-01-23T03:20:11.040Z,61.42
2019-01-23T03:20:46.908Z,61.16
2019-01-23T03:21:22.955Z,61.09
2019-01-23T03:21:58.412Z,60.90
2019-01-23T03:22:33.949Z,60.49
2019-01-23T03:23:09.665Z,60.43
2019-01-23T03:23:45.253Z,60.64
2019-01-23T03:24:21.005Z,60.85
2019-01-23T03:24:57.023Z,60.93
2019-01-23T03:25:32.613Z,61.12
2019-01-23T03:26:08.481Z,61.31
2019-01-23T03:26:43.939Z,61.35
2019-01-23T03:27:19.362Z,61.32
2019-01-23T03:27:54.786Z,60.95
2019-01-23T03:28:30.228Z,60.60
2019-01-23T03:29:05.687Z,60.57
2019-01-23T03:29:41.569Z,60.76
2019-01-23T03:30:19.446Z,61.03
2019-01-23T03:30:54.924Z,61.17
2019-01-23T03:31:30.361Z,60.88
2019-01-23T03:32:05.923Z,60.90
2019-01-23T03:32:41.391Z,60.81
2019-01-23T03:33:16.854Z,60.90
2019-01-23T03:33:52.270Z,60.95
2019-01-23T03:34:28.260Z,60.88
2019-01-23T03:35:03.829Z,61.02
2019-01-23T03:35:39.375Z,61.21
2019-01-23T03:36:14.838Z,61.20
2019-01-23T03:36:50.534Z,61.05
2019-01-23T03:37:25.987Z,61.19
2019-01-23T03:38:01.432Z,61.40
2019-01-23T03:38:36.860Z,61.36
2019-01-23T03:39:12.635Z,61.55
2019-01-23T03:39:48.066Z,61.51
2019-01-23T03:40:23.576Z,61.32
2019-01-23T03:40:59.010Z,61.46
2019-01-23T03:41:35.001Z,61.55
2019-01-23T03:42:10.737Z,61.48
2019-01-23T03:42:46.175Z,61.35
2019-01-23T03:43:21.604Z,61.26
2019-01-23T03:43:57.049Z,61.39
2019-01-23T03:44:32.490Z,61.51
2019-01-23T03:45:09.523Z,61.54
2019-01-23T03:45:45.047Z,61.50
2019-01-23T03:46:20.481Z,61.09
2019-01-23T03:46:55.915Z,61.06
2019-01-23T03:47:31.355Z,60.98
2019-01-23T03:48:06.926Z,61.14
2019-01-23T03:48:42.465Z,61.29
2019-01-23T03:49:18.273Z,61.31
2019-01-23T03:49:53.694Z,60.98
2019-01-23T03:50:29.136Z,60.90
2019-01-23T03:51:04.604Z,60.80
2019-01-23T03:51:40.035Z,60.71
2019-01-23T03:52:15.666Z,60.87
2019-01-23T03:52:51.175Z,61.16
2019-01-23T03:53:26.612Z,61.39
2019-01-23T03:54:02.077Z,61.51
2019-01-23T03:54:37.572Z,61.47
2019-01-23T03:55:13.679Z,61.44
2019-01-23T03:55:49.135Z,61.49
2019-01-23T03:56:24.889Z,61.55
2019-01-23T03:57:00.453Z,61.61
2019-01-23T03:57:35.962Z,61.44
2019-01-23T03:58:11.719Z,61.12
2019-01-23T03:58:47.390Z,61.08
2019-01-23T03:59:23.076Z,61.19
2019-01-23T03:59:58.773Z,61.20
2019-01-23T04:00:34.206Z,61.23
2019-01-23T04:01:09.982Z,61.19
2019-01-23T04:01:45.710Z,61.28
2019-01-23T04:02:21.500Z,61.25
2019-01-23T04:02:57.188Z,61.26
2019-01-23T04:03:32.621Z,61.24
2019-01-23T04:04:08.112Z,61.25
2019-01-23T04:04:43.648Z,61.23
2019-01-23T04:05:19.092Z,61.36
2019-01-23T04:05:55.058Z,61.31
2019-01-23T04:06:30.494Z,61.39
2019-01-23T04:07:05.929Z,61.42
2019-01-23T04:07:41.484Z,61.58
2019-01-23T04:08:16.934Z,61.75
2019-01-23T04:08:52.390Z,61.86
2019-01-23T04:09:27.921Z,61.78
2019-01-23T04:10:03.581Z,61.82
2019-01-23T04:10:39.066Z,61.66
2019-01-23T04:11:14.566Z,61.81
2019-01-23T04:11:50.456Z,61.99
2019-01-23T04:12:25.894Z,61.93
2019-01-23T04:13:01.382Z,61.77
2019-01-23T04:13:37.065Z,61.88
2019-01-23T04:14:13.210Z,62.12
2019-01-23T04:14:48.662Z,62.25
2019-01-23T04:15:24.110Z,62.34
2019-01-23T04:15:59.809Z,62.14
2019-01-23T04:16:35.623Z,61.86
2019-01-23T04:17:11.364Z,62.05
2019-01-23T04:17:47.168Z,61.87
2019-01-23T04:18:22.619Z,61.90
2019-01-23T04:18:58.044Z,62.14
2019-01-23T04:19:33.469Z,62.04
2019-01-23T04:20:12.293Z,62.09
2019-01-23T04:20:47.774Z,62.27
2019-01-23T04:21:23.496Z,62.44
2019-01-23T04:21:58.928Z,62.60
2019-01-23T04:22:34.376Z,62.62
2019-01-23T04:23:10.179Z,62.71
2019-01-23T04:23:45.668Z,62.70
2019-01-23T04:24:21.097Z,62.69
2019-01-23T04:24:56.776Z,62.69
2019-01-23T04:25:32.218Z,62.50
2019-01-23T04:26:07.716Z,62.19
2019-01-23T04:26:43.492Z,61.82
2019-01-23T04:27:19.511Z,61.75
2019-01-23T04:27:55.291Z,61.84
2019-01-23T04:28:30.736Z,61.81
2019-01-23T04:29:06.235Z,61.88
2019-01-23T04:29:41.822Z,62.00
2019-01-23T04:30:19.831Z,61.75
2019-01-23T04:30:55.579Z,61.04
2019-01-23T04:31:31.094Z,61.19
2019-01-23T04:32:06.853Z,61.13
2019-01-23T04:32:42.466Z,61.24
2019-01-23T04:33:17.944Z,61.20
2019-01-23T04:33:53.675Z,61.38
2019-01-23T04:34:29.125Z,61.75
2019-01-23T04:35:05.313Z,61.95
2019-01-23T04:35:40.827Z,61.94
2019-01-23T04:36:16.362Z,62.01
2019-01-23T04:36:52.052Z,62.00
2019-01-23T04:37:27.779Z,62.14
2019-01-23T04:38:03.266Z,62.34
2019-01-23T04:38:39.050Z,61.83
2019-01-23T04:39:14.771Z,61.87
2019-01-23T04:39:50.645Z,61.80
2019-01-23T04:40:26.357Z,61.78
2019-01-23T04:41:01.790Z,61.92
2019-01-23T04:41:37.343Z,61.99
2019-01-23T04:42:12.929Z,62.10
2019-01-23T04:42:48.398Z,62.06
2019-01-23T04:43:24.539Z,61.87
2019-01-23T04:44:00.273Z,61.75
2019-01-23T04:44:36.270Z,61.85
2019-01-23T04:45:12.827Z,61.89
2019-01-23T04:45:48.540Z,61.89
2019-01-23T04:46:23.972Z,61.80
2019-01-23T04:46:59.399Z,61.66
2019-01-23T04:47:34.985Z,61.79
2019-01-23T04:48:10.835Z,61.54
2019-01-23T04:48:46.696Z,61.29
2019-01-23T04:49:22.115Z,61.25
2019-01-23T04:49:57.557Z,61.38
2019-01-23T04:50:34.630Z,61.48
2019-01-23T04:51:34.984Z,61.67
2019-01-23T04:52:15.970Z,61.78
2019-01-23T04:53:12.317Z,61.99
2019-01-23T04:53:49.039Z,62.08
2019-01-23T04:54:24.566Z,62.00
2019-01-23T04:55:00.262Z,62.15
2019-01-23T04:55:37.845Z,62.27
2019-01-23T04:56:13.839Z,62.21
2019-01-23T04:56:49.573Z,62.20
2019-01-23T04:57:25.005Z,61.82
2019-01-23T04:58:00.469Z,62.08
2019-01-23T04:58:36.540Z,62.20
2019-01-23T04:59:12.309Z,62.17
2019-01-23T04:59:48.069Z,62.29
2019-01-23T05:00:25.272Z,62.34
2019-01-23T05:01:01.051Z,62.46
2019-01-23T05:01:36.524Z,62.54
2019-01-23T05:02:12.058Z,62.43
2019-01-23T05:02:47.797Z,62.08
2019-01-23T05:03:23.578Z,61.60
2019-01-23T05:03:59.033Z,61.60
2019-01-23T05:04:34.782Z,61.81
2019-01-23T05:05:10.647Z,61.77
2019-01-23T05:05:46.414Z,61.44
2019-01-23T05:06:22.148Z,61.51
2019-01-23T05:06:57.864Z,61.52
2019-01-23T05:07:33.646Z,61.16
2019-01-23T05:08:09.422Z,60.83
2019-01-23T05:08:44.891Z,60.74
2019-01-23T05:09:20.894Z,60.81
2019-01-23T05:09:56.630Z,60.93
2019-01-23T05:10:32.346Z,61.03
2019-01-23T05:11:07.837Z,61.19
2019-01-23T05:11:43.313Z,61.17
2019-01-23T05:12:18.789Z,60.88
2019-01-23T05:12:54.498Z,60.86
2019-01-23T05:13:30.222Z,60.95
2019-01-23T05:14:06.061Z,61.05
2019-01-23T05:14:41.839Z,61.05
2019-01-23T05:15:17.593Z,60.92
2019-01-23T05:15:53.087Z,60.69
2019-01-23T05:16:28.794Z,60.97
2019-01-23T05:17:04.493Z,61.14
2019-01-23T05:17:39.944Z,60.85
2019-01-23T05:18:15.703Z,60.58
2019-01-23T05:18:51.161Z,60.57
2019-01-23T05:19:26.922Z,60.45
2019-01-23T05:20:02.347Z,60.51
2019-01-23T05:20:37.866Z,60.66
2019-01-23T05:21:13.985Z,60.62
2019-01-23T05:21:49.619Z,60.75
2019-01-23T05:22:25.067Z,60.77
2019-01-23T05:23:00.548Z,60.50
2019-01-23T05:23:36.075Z,60.09
2019-01-23T05:24:11.621Z,60.11
2019-01-23T05:24:47.084Z,60.19
2019-01-23T05:25:22.878Z,60.47
2019-01-23T05:25:58.306Z,60.38
2019-01-23T05:26:34.772Z,60.42
2019-01-23T05:27:10.340Z,60.50
2019-01-23T05:27:45.825Z,60.65
2019-01-23T05:28:21.552Z,60.65
2019-01-23T05:28:56.993Z,60.61
2019-01-23T05:29:32.425Z,60.33
2019-01-23T05:30:11.872Z,60.00
2019-01-23T05:30:47.442Z,59.71
2019-01-23T05:31:22.857Z,59.36
2019-01-23T05:31:58.315Z,59.14
2019-01-23T05:32:34.012Z,59.39
2019-01-23T05:33:09.544Z,59.71
2019-01-23T05:33:45.101Z,59.81
2019-01-23T05:34:20.542Z,59.98
2019-01-23T05:34:56.226Z,59.81
2019-01-23T05:35:31.674Z,59.69
2019-01-23T05:36:07.326Z,59.80
2019-01-23T05:36:42.768Z,59.52
2019-01-23T05:37:18.729Z,59.62
2019-01-23T05:37:54.164Z,59.17
2019-01-23T05:38:29.766Z,59.23
2019-01-23T05:39:08.282Z,59.10
2019-01-23T05:39:44.944Z,58.92
2019-01-23T05:40:20.501Z,59.21
2019-01-23T05:40:56.255Z,59.16
2019-01-23T05:41:32.006Z,59.37
2019-01-23T05:42:07.733Z,59.37
2019-01-23T05:42:43.185Z,59.60
2019-01-23T05:43:18.643Z,59.53
2019-01-23T05:43:54.076Z,59.17
2019-01-23T05:44:29.584Z,58.98
2019-01-23T05:45:05.928Z,59.24
2019-01-23T05:45:41.693Z,59.51
2019-01-23T05:46:17.157Z,59.37
2019-01-23T05:46:52.586Z,59.27
2019-01-23T05:47:28.017Z,58.93
2019-01-23T05:48:03.449Z,58.80
2019-01-23T05:48:39.031Z,59.09
2019-01-23T05:49:14.515Z,58.37
2019-01-23T05:49:49.953Z,58.38
2019-01-23T05:50:25.377Z,58.15
2019-01-23T05:51:01.104Z,58.47
2019-01-23T05:51:36.611Z,58.27
2019-01-23T05:52:12.460Z,58.51
2019-01-23T05:52:49.021Z,58.69
2019-01-23T05:53:24.518Z,58.71
2019-01-23T05:53:59.984Z,58.71
2019-01-23T05:54:35.449Z,58.59
2019-01-23T05:55:12.243Z,58.92
2019-01-23T05:55:47.718Z,58.96
2019-01-23T05:56:23.169Z,59.01
2019-01-23T05:56:58.969Z,59.29
2019-01-23T05:57:34.435Z,59.46
2019-01-23T05:58:11.960Z,59.19
2019-01-23T05:58:47.747Z,59.36
2019-01-23T05:59:23.182Z,59.43
2019-01-23T06:00:02.382Z,59.88
2019-01-23T06:00:36.066Z,59.71
2019-01-23T06:01:11.853Z,59.93
2019-01-23T06:01:47.642Z,59.96
2019-01-23T06:02:23.072Z,59.95
2019-01-23T06:02:58.512Z,59.91
2019-01-23T06:03:34.153Z,59.78
2019-01-23T06:04:10.050Z,59.82
2019-01-23T06:04:46.464Z,59.92
2019-01-23T06:05:22.311Z,59.92
2019-01-23T06:05:58.085Z,60.09
2019-01-23T06:06:33.804Z,59.54
2019-01-23T06:07:09.928Z,59.70
2019-01-23T06:07:45.723Z,59.81
2019-01-23T06:08:21.748Z,59.66
2019-01-23T06:08:57.232Z,59.13
2019-01-23T06:09:32.977Z,59.21
2019-01-23T06:10:08.857Z,59.38
2019-01-23T06:10:44.406Z,59.56
2019-01-23T06:11:20.816Z,59.53
2019-01-23T06:11:56.608Z,59.27
2019-01-23T06:12:32.057Z,58.85
2019-01-23T06:13:07.538Z,58.74
2019-01-23T06:13:43.069Z,58.86
2019-01-23T06:14:18.594Z,58.97
2019-01-23T06:14:54.326Z,58.79
2019-01-23T06:15:29.779Z,58.55
2019-01-23T06:16:05.268Z,58.62
2019-01-23T06:16:40.772Z,58.88
2019-01-23T06:17:16.268Z,58.89
2019-01-23T06:17:51.710Z,58.82
2019-01-23T06:18:27.142Z,58.98
2019-01-23T06:19:02.614Z,58.69
2019-01-23T06:19:38.154Z,58.78
2019-01-23T06:20:16.245Z,58.67
2019-01-23T06:20:51.706Z,58.45
2019-01-23T06:21:27.144Z,58.59
2019-01-23T06:22:02.904Z,58.66
2019-01-23T06:22:38.489Z,58.90
2019-01-23T06:23:13.981Z,58.98
2019-01-23T06:23:49.436Z,59.11
2019-01-23T06:24:24.902Z,58.81
2019-01-23T06:25:00.351Z,58.93
2019-01-23T06:25:35.840Z,59.15
2019-01-23T06:26:11.340Z,58.90
2019-01-23T06:26:47.127Z,59.06
2019-01-23T06:27:22.573Z,59.28
2019-01-23T06:27:58.584Z,58.71
2019-01-23T06:28:34.370Z,58.75
2019-01-23T06:29:09.994Z,58.92
2019-01-23T06:29:45.482Z,59.16
2019-01-23T06:30:25.657Z,59.37
2019-01-23T06:31:01.098Z,59.41
2019-01-23T06:31:37.354Z,59.41
2019-01-23T06:32:12.894Z,59.48
2019-01-23T06:32:48.375Z,59.59
2019-01-23T06:33:24.139Z,59.52
2019-01-23T06:33:59.846Z,59.63
2019-01-23T06:34:35.309Z,59.70
2019-01-23T06:35:10.814Z,59.64
2019-01-23T06:35:46.597Z,59.60
2019-01-23T06:36:22.310Z,59.36
2019-01-23T06:36:58.062Z,59.04
2019-01-23T06:37:33.488Z,59.13
2019-01-23T06:38:09.000Z,59.24
2019-01-23T06:38:44.594Z,58.96
2019-01-23T06:39:20.064Z,59.24
2019-01-23T06:39:55.770Z,59.33
2019-01-23T06:40:31.759Z,59.43
2019-01-23T06:41:07.237Z,59.29
2019-01-23T06:41:42.847Z,58.96
2019-01-23T06:42:18.372Z,59.19
2019-01-23T06:42:54.117Z,59.35
2019-01-23T06:43:29.851Z,59.26
2019-01-23T06:44:05.854Z,59.26
2019-01-23T06:44:41.748Z,59.40
2019-01-23T06:45:17.767Z,59.73
2019-01-23T06:45:53.468Z,59.85
2019-01-23T06:46:29.366Z,59.62
2019-01-23T06:47:04.815Z,59.34
2019-01-23T06:47:40.679Z,58.98
2019-01-23T06:48:16.173Z,58.99
2019-01-23T06:48:51.660Z,59.13
2019-01-23T06:49:30.014Z,59.04
2019-01-23T06:50:05.674Z,59.28
2019-01-23T06:50:41.460Z,59.57
2019-01-23T06:51:16.923Z,59.76
2019-01-23T06:51:52.353Z,59.73
2019-01-23T06:52:27.791Z,59.56
2019-01-23T06:53:03.244Z,59.37
2019-01-23T06:53:39.063Z,59.48
2019-01-23T06:54:14.621Z,59.65
2019-01-23T06:54:50.080Z,59.59
2019-01-23T06:55:25.802Z,59.81
2019-01-23T06:56:01.357Z,59.83
2019-01-23T06:56:36.976Z,59.64
2019-01-23T06:57:12.685Z,59.71
2019-01-23T06:57:48.299Z,59.81
2019-01-23T06:58:24.073Z,59.59
2019-01-23T06:58:59.837Z,59.38
2019-01-23T06:59:35.406Z,59.70
2019-01-23T07:00:17.445Z,59.96
2019-01-23T07:00:53.015Z,59.69
2019-01-23T07:01:28.447Z,59.59
2019-01-23T07:02:03.879Z,59.63
2019-01-23T07:02:39.799Z,59.19
2019-01-23T07:03:15.275Z,59.52
2019-01-23T07:03:50.719Z,59.52
2019-01-23T07:04:26.427Z,59.53
2019-01-23T07:05:01.902Z,59.54
2019-01-23T07:05:37.466Z,59.32
2019-01-23T07:06:13.398Z,59.05
2019-01-23T07:06:49.121Z,59.44
2019-01-23T07:07:24.605Z,59.73
2019-01-23T07:08:00.384Z,59.85
2019-01-23T07:08:35.872Z,60.00
2019-01-23T07:09:11.475Z,60.11
2019-01-23T07:09:47.009Z,60.24
2019-01-23T07:10:24.757Z,59.95
2019-01-23T07:11:00.291Z,59.73
2019-01-23T07:11:35.734Z,59.77
2019-01-23T07:12:11.539Z,59.70
2019-01-23T07:12:47.312Z,59.71
2019-01-23T07:13:22.743Z,59.67
2019-01-23T07:13:58.205Z,59.71
2019-01-23T07:14:34.050Z,59.75
2019-01-23T07:15:10.768Z,59.55
2019-01-23T07:15:46.349Z,59.26
2019-01-23T07:16:22.081Z,58.85
2019-01-23T07:16:57.768Z,58.75
2019-01-23T07:17:33.290Z,58.94
2019-01-23T07:18:08.782Z,59.18
2019-01-23T07:18:44.292Z,59.21
2019-01-23T07:19:19.762Z,59.30
2019-01-23T07:19:55.217Z,59.55
2019-01-23T07:20:30.654Z,59.21
2019-01-23T07:21:06.102Z,59.14
2019-01-23T07:21:41.562Z,59.33
2019-01-23T07:22:17.309Z,59.69
2019-01-23T07:22:53.030Z,59.68
2019-01-23T07:23:28.743Z,59.94
2019-01-23T07:24:04.562Z,60.13
2019-01-23T07:24:40.122Z,60.10
2019-01-23T07:25:15.820Z,60.10
2019-01-23T07:25:51.507Z,60.11
2019-01-23T07:26:27.014Z,59.67
2019-01-23T07:27:02.480Z,59.64
2019-01-23T07:27:37.976Z,59.64
2019-01-23T07:28:13.513Z,59.60
2019-01-23T07:28:49.519Z,59.69
2019-01-23T07:29:24.897Z,59.46
2019-01-23T07:30:00.326Z,59.41
2019-01-23T07:30:38.639Z,59.63
2019-01-23T07:31:14.190Z,59.94
2019-01-23T07:31:49.894Z,59.80
2019-01-23T07:32:25.623Z,59.88
2019-01-23T07:33:01.098Z,59.88
2019-01-23T07:33:36.552Z,60.18
2019-01-23T07:34:12.103Z,60.14
2019-01-23T07:34:47.559Z,59.88
2019-01-23T07:35:23.332Z,60.00
2019-01-23T07:35:58.760Z,59.84
2019-01-23T07:36:34.215Z,59.33
2019-01-23T07:37:09.641Z,59.09
2019-01-23T07:37:45.065Z,59.17
2019-01-23T07:38:20.911Z,59.14
2019-01-23T07:38:56.352Z,59.05
2019-01-23T07:39:32.128Z,58.96
2019-01-23T07:40:08.270Z,58.86
2019-01-23T07:40:43.974Z,58.95
2019-01-23T07:41:19.636Z,59.07